Time;durP1;ratioP1;P1;durP2;ratioP2;P2;SDS_P1;SDS_P2;PMS_P1;PMS_P2;Temp;Humidity;BMP_temperature;BMP_pressure;BME280_temperature;BME280_humidity;BME280_pressure;Samples;Min_cycle;Max_cycle;Signal;HPM_P1;HPM_P2
2022/01/17 00:04:45;;;;;;;0.20;0.00;;;7.30;99.90;;;;;;25582032;23;20289;-69
2022/01/17 00:14:49;;;;;;;0.20;0.20;;;7.20;99.90;;;;;;25581011;23;20276;-68
2022/01/17 00:24:55;;;;;;;0.20;0.00;;;6.70;99.90;;;;;;25584389;23;20251;-69
2022/01/17 00:34:58;;;;;;;1.80;1.70;;;6.50;99.90;;;;;;25585395;23;20640;-70
2022/01/17 00:45:07;;;;;;;0.20;0.00;;;6.90;99.90;;;;;;25585523;23;20178;-68
2022/01/17 00:55:11;;;;;;;0.20;0.10;;;6.80;99.90;;;;;;25586311;23;20285;-71
2022/01/17 01:17:47;;;;;;;0.20;0.10;;;6.30;99.90;;;;;;25562821;23;20225;-71
2022/01/17 01:27:55;;;;;;;0.20;0.10;;;6.60;99.90;;;;;;25584708;23;20237;-71
2022/01/17 01:38:01;;;;;;;0.20;0.10;;;6.60;99.90;;;;;;25583944;23;20197;-70
2022/01/17 01:48:08;;;;;;;0.20;0.00;;;6.00;99.90;;;;;;25584102;23;20249;-70
2022/01/17 01:58:13;;;;;;;0.20;0.10;;;5.70;99.90;;;;;;25583917;23;20224;-69
2022/01/17 02:08:17;;;;;;;0.20;0.03;;;6.70;99.90;;;;;;25583714;23;20249;-69
2022/01/17 02:18:29;;;;;;;0.20;0.10;;;6.90;99.90;;;;;;25581712;23;20305;-69
2022/01/17 02:28:36;;;;;;;0.20;0.00;;;7.00;99.90;;;;;;25590827;23;20170;-68
2022/01/17 02:38:40;;;;;;;0.20;0.07;;;6.70;99.90;;;;;;25590398;23;20707;-69
2022/01/17 02:48:46;;;;;;;0.20;0.10;;;6.80;99.90;;;;;;25590380;23;20198;-65
2022/01/17 02:58:50;;;;;;;0.20;0.10;;;6.90;99.90;;;;;;25591083;23;20260;-66
2022/01/17 03:08:55;;;;;;;0.20;0.10;;;6.70;99.90;;;;;;25591270;23;20249;-70
2022/01/17 03:19:00;;;;;;;0.20;0.00;;;6.80;99.90;;;;;;25589185;23;20291;-71
2022/01/17 03:29:05;;;;;;;0.20;0.10;;;6.80;99.90;;;;;;25590314;23;20197;-72
2022/01/17 03:39:09;;;;;;;0.20;0.10;;;6.60;99.90;;;;;;25587766;23;20280;-67
2022/01/17 03:49:15;;;;;;;0.20;0.10;;;6.20;99.90;;;;;;25589063;23;20246;-67
2022/01/17 03:59:19;;;;;;;0.20;0.00;;;6.80;99.90;;;;;;25588963;23;20300;-70
2022/01/17 04:09:24;;;;;;;0.20;0.10;;;6.60;99.90;;;;;;25586723;23;20205;-71
2022/01/17 04:19:28;;;;;;;0.20;0.00;;;6.90;99.90;;;;;;25586082;23;20292;-66
2022/01/17 04:29:33;;;;;;;0.20;0.10;;;6.80;99.90;;;;;;25585449;23;20262;-66
2022/01/17 04:39:37;;;;;;;0.20;0.10;;;6.80;99.90;;;;;;25587307;23;20305;-66
2022/01/17 04:49:42;;;;;;;0.20;0.20;;;6.70;99.90;;;;;;25586470;23;20715;-67
2022/01/17 04:59:46;;;;;;;1.63;0.53;;;6.90;99.90;;;;;;25584868;23;20198;-71
2022/01/17 05:09:52;;;;;;;1.17;0.83;;;7.10;99.90;;;;;;25586493;23;20596;-70
2022/01/17 05:19:57;;;;;;;0.20;0.03;;;7.30;99.90;;;;;;25584510;23;20371;-71
2022/01/17 05:30:05;;;;;;;0.20;0.10;;;7.40;99.90;;;;;;25586177;23;20495;-72
2022/01/17 05:40:11;;;;;;;0.20;0.10;;;7.50;99.90;;;;;;25585910;23;20273;-72
2022/01/17 05:50:17;;;;;;;0.20;0.10;;;7.30;99.90;;;;;;25584217;23;20257;-67
2022/01/17 06:00:20;;;;;;;0.20;0.13;;;7.40;99.90;;;;;;25587852;23;20280;-67
2022/01/17 06:10:26;;;;;;;0.20;0.20;;;7.20;99.90;;;;;;25591142;23;20243;-71
2022/01/17 06:20:30;;;;;;;0.63;0.63;;;7.00;99.90;;;;;;25589068;23;20619;-72
2022/01/17 06:30:35;;;;;;;0.20;0.10;;;6.80;99.90;;;;;;25590286;23;20258;-70
2022/01/17 06:40:39;;;;;;;0.20;0.10;;;6.80;99.90;;;;;;25588878;23;20197;-69
2022/01/17 06:50:44;;;;;;;0.87;0.87;;;7.00;99.90;;;;;;25586852;23;20507;-69
2022/01/17 07:00:48;;;;;;;0.20;0.10;;;7.10;99.90;;;;;;25585653;23;20210;-72
2022/01/17 07:10:54;;;;;;;0.20;0.00;;;7.20;99.90;;;;;;25580035;23;20298;-71
2022/01/17 07:20:57;;;;;;;0.60;0.60;;;7.20;99.90;;;;;;25586365;23;20297;-70
2022/01/17 07:31:03;;;;;;;0.20;0.10;;;7.20;99.90;;;;;;25584686;23;20689;-70
2022/01/17 07:41:08;;;;;;;0.20;0.10;;;7.00;99.90;;;;;;25585564;23;20591;-68
2022/01/17 07:51:34;;;;;;;0.20;0.20;;;7.30;99.90;;;;;;25582388;23;20167;-67
2022/01/17 08:01:39;;;;;;;0.20;0.10;;;7.40;99.90;;;;;;25587398;23;20280;-69
2022/01/17 08:11:44;;;;;;;0.50;0.50;;;8.00;99.90;;;;;;25584293;23;20472;-67
2022/01/17 08:21:48;;;;;;;0.20;0.10;;;8.40;99.90;;;;;;25583499;23;20210;-67
2022/01/17 08:31:54;;;;;;;0.20;0.00;;;8.40;99.90;;;;;;25585977;23;20507;-71
2022/01/17 08:41:58;;;;;;;0.20;0.10;;;8.60;99.90;;;;;;25584032;23;20201;-73
2022/01/17 08:52:04;;;;;;;0.20;0.00;;;8.80;99.90;;;;;;25586621;23;20242;-73
2022/01/17 09:02:08;;;;;;;0.20;0.10;;;9.20;99.90;;;;;;25584767;23;20292;-71
2022/01/17 09:12:15;;;;;;;0.20;0.10;;;9.40;99.90;;;;;;25583812;23;20585;-72
2022/01/17 09:22:19;;;;;;;0.20;0.10;;;9.50;99.90;;;;;;25584349;23;20420;-73
2022/01/17 09:32:24;;;;;;;0.20;0.10;;;9.90;99.90;;;;;;25583967;23;20249;-68
2022/01/17 09:42:35;;;;;;;0.20;0.10;;;10.40;99.90;;;;;;25584657;23;20230;-69
2022/01/17 09:52:46;;;;;;;0.20;0.10;;;10.80;99.90;;;;;;25577569;23;20173;-69
2022/01/17 10:02:50;;;;;;;0.20;0.10;;;11.60;99.90;;;;;;25580047;23;20289;-68
2022/01/17 10:13:06;;;;;;;0.20;0.10;;;12.00;99.90;;;;;;25580251;23;20253;-68
2022/01/17 10:23:28;;;;;;;5.73;3.40;;;12.60;99.90;;;;;;25576911;23;20289;-68
2022/01/17 10:44:08;;;;;;;0.20;0.00;;;13.20;99.90;;;;;;25525553;23;20209;-68
2022/01/17 10:54:15;;;;;;;0.20;0.10;;;14.40;99.90;;;;;;25572970;23;20174;-67
2022/01/17 11:04:34;;;;;;;0.20;0.00;;;15.10;99.90;;;;;;25573780;23;20277;-75
2022/01/17 11:14:41;;;;;;;0.30;0.30;;;14.80;99.90;;;;;;25572825;23;20209;-74
2022/01/17 11:24:46;;;;;;;0.20;0.10;;;15.70;99.90;;;;;;25571340;23;20543;-72
2022/01/17 11:34:51;;;;;;;0.20;0.10;;;15.90;99.90;;;;;;25568509;23;21036;-75
2022/01/17 11:44:55;;;;;;;0.20;0.20;;;15.70;99.90;;;;;;25572192;23;20249;-67
2022/01/17 11:55:01;;;;;;;0.20;0.10;;;15.80;99.90;;;;;;25569824;23;20187;-67
2022/01/17 12:05:42;;;;;;;0.20;0.10;;;16.50;99.90;;;;;;25569794;23;20193;-68
2022/01/17 12:15:58;;;;;;;0.20;0.10;;;16.70;99.90;;;;;;25566571;23;20210;-68
2022/01/17 12:26:30;;;;;;;0.30;0.30;;;17.30;99.90;;;;;;25567900;23;20228;-69
2022/01/17 12:36:35;;;;;;;0.20;0.10;;;17.80;99.90;;;;;;25566813;23;20288;-77
2022/01/17 12:46:39;;;;;;;0.20;0.10;;;18.00;99.90;;;;;;25568502;23;20261;-80
2022/01/17 12:56:48;;;;;;;0.43;0.43;;;18.30;99.90;;;;;;25565349;23;20536;-75
2022/01/17 13:06:54;;;;;;;1.63;1.53;;;18.60;99.90;;;;;;25569346;23;20194;-78
2022/01/17 13:16:59;;;;;;;0.20;0.10;;;19.20;99.90;;;;;;25571085;23;20293;-76
2022/01/17 13:27:10;;;;;;;0.47;0.43;;;19.20;99.90;;;;;;25565249;23;20178;-77
2022/01/17 13:37:16;;;;;;;0.20;0.10;;;19.50;99.90;;;;;;25559228;23;20216;-76
2022/01/17 13:47:29;;;;;;;3.80;2.20;;;19.80;99.90;;;;;;25567375;23;20182;-76
2022/01/17 13:57:35;;;;;;;0.20;0.10;;;19.20;99.90;;;;;;25570198;23;20509;-76
2022/01/17 14:07:44;;;;;;;0.87;0.87;;;19.00;99.90;;;;;;25569307;23;20170;-76
2022/01/17 14:17:50;;;;;;;0.20;0.10;;;19.50;99.90;;;;;;25571661;23;20216;-72
2022/01/17 14:27:58;;;;;;;0.20;0.10;;;20.00;99.90;;;;;;25573818;23;20185;-72
2022/01/17 14:38:04;;;;;;;0.20;0.10;;;21.00;99.90;;;;;;25572733;23;20260;-73
2022/01/17 14:48:15;;;;;;;0.20;0.10;;;20.70;99.90;;;;;;25575463;23;20181;-73
2022/01/17 15:08:42;;;;;;;0.20;0.10;;;20.30;99.90;;;;;;25572487;23;20895;-73
2022/01/17 15:18:47;;;;;;;0.20;0.10;;;19.50;99.90;;;;;;25572123;23;20221;-68
2022/01/17 15:28:51;;;;;;;0.20;0.10;;;18.90;99.90;;;;;;25569778;23;20178;-69
2022/01/17 15:38:56;;;;;;;0.20;0.10;;;20.40;99.90;;;;;;25570655;23;20300;-67
2022/01/17 15:49:00;;;;;;;0.20;0.10;;;19.40;99.90;;;;;;25570571;23;20273;-68
2022/01/17 15:59:06;;;;;;;0.20;0.10;;;17.30;99.90;;;;;;25568529;23;20284;-67
2022/01/17 16:09:10;;;;;;;0.20;0.10;;;16.80;99.90;;;;;;25567731;23;20209;-65
2022/01/17 16:19:15;;;;;;;0.20;0.10;;;15.00;99.90;;;;;;25567062;23;20220;-65
2022/01/17 16:29:36;;;;;;;0.20;0.10;;;13.80;99.90;;;;;;25567778;23;20237;-73
2022/01/17 16:39:41;;;;;;;0.20;0.10;;;13.20;99.90;;;;;;25567104;23;20194;-74
2022/01/17 16:49:45;;;;;;;0.20;0.10;;;12.90;99.90;;;;;;25568256;23;20253;-73
2022/01/17 16:59:50;;;;;;;0.40;0.40;;;12.50;99.90;;;;;;25568969;23;20594;-73
2022/01/17 17:09:54;;;;;;;0.20;0.07;;;11.60;99.90;;;;;;25572334;23;20273;-74
2022/01/17 17:19:59;;;;;;;0.20;0.10;;;10.60;99.90;;;;;;25567352;23;20308;-75
2022/01/17 17:30:06;;;;;;;7.30;3.03;;;10.60;99.90;;;;;;25561773;23;20624;-74
2022/01/17 17:40:12;;;;;;;2.10;1.30;;;9.80;99.90;;;;;;25565235;23;20201;-73
2022/01/17 17:50:16;;;;;;;1.93;1.80;;;9.50;99.90;;;;;;25567830;23;20234;-70
2022/01/17 18:00:26;;;;;;;0.20;0.10;;;9.40;99.90;;;;;;25585765;23;20276;-72
2022/01/17 18:10:30;;;;;;;0.30;0.30;;;8.60;99.90;;;;;;25590716;23;20166;-73
2022/01/17 18:20:36;;;;;;;0.20;0.10;;;8.70;99.90;;;;;;25590802;23;20696;-72
2022/01/17 18:30:40;;;;;;;0.20;0.00;;;8.50;99.90;;;;;;25591066;23;20170;-72
2022/01/17 18:40:46;;;;;;;0.20;0.00;;;8.40;99.90;;;;;;25588351;23;20264;-70
2022/01/17 18:50:50;;;;;;;0.67;0.67;;;8.20;99.90;;;;;;25590202;23;20592;-73
2022/01/17 19:00:56;;;;;;;0.20;0.00;;;8.00;99.90;;;;;;25590384;23;20579;-72
2022/01/17 19:11:00;;;;;;;0.20;0.10;;;8.40;99.90;;;;;;25586853;23;20173;-70
2022/01/17 19:21:17;;;;;;;0.43;0.43;;;9.80;99.90;;;;;;25580800;23;20532;-72
2022/01/17 19:31:21;;;;;;;0.20;0.00;;;10.10;99.90;;;;;;25581767;23;20170;-71
2022/01/17 19:41:28;;;;;;;9.53;2.53;;;9.40;99.90;;;;;;25583317;23;20380;-72
2022/01/17 19:51:34;;;;;;;0.20;0.10;;;9.00;99.90;;;;;;25583058;23;20210;-70
2022/01/17 20:01:40;;;;;;;0.20;0.20;;;9.10;99.90;;;;;;25581665;23;20492;-72
2022/01/17 20:11:44;;;;;;;0.20;0.10;;;9.40;99.90;;;;;;25582036;23;20166;-71
2022/01/17 20:21:49;;;;;;;0.20;0.10;;;9.50;99.90;;;;;;25580817;23;20212;-67
2022/01/17 20:31:53;;;;;;;0.20;0.00;;;9.20;99.90;;;;;;25581377;23;20245;-71
2022/01/17 20:41:59;;;;;;;0.20;0.10;;;8.90;99.90;;;;;;25578609;23;20190;-72
2022/01/17 20:52:04;;;;;;;0.20;0.00;;;8.10;99.90;;;;;;25579829;23;20492;-70
2022/01/17 21:02:10;;;;;;;0.20;0.00;;;7.90;99.90;;;;;;25580018;23;20228;-71
2022/01/17 21:12:18;;;;;;;0.20;0.00;;;7.80;99.90;;;;;;25580834;23;20652;-71
2022/01/17 21:22:26;;;;;;;0.20;0.10;;;8.40;99.90;;;;;;25578830;23;20206;-70
2022/01/17 21:32:31;;;;;;;0.20;0.10;;;8.20;99.90;;;;;;25581024;23;20209;-71
2022/01/17 21:42:36;;;;;;;0.20;0.10;;;8.00;99.90;;;;;;25578041;23;20229;-68
2022/01/17 21:52:41;;;;;;;0.20;0.10;;;8.50;99.90;;;;;;25578552;23;20250;-68
2022/01/17 22:02:47;;;;;;;0.20;0.00;;;8.40;99.90;;;;;;25580866;23;20666;-76
2022/01/17 22:12:51;;;;;;;0.20;0.00;;;8.30;99.90;;;;;;25582673;23;20178;-76
2022/01/17 22:22:56;;;;;;;2.67;1.57;;;8.10;99.90;;;;;;25584214;23;20241;-80
2022/01/17 22:33:01;;;;;;;0.20;0.00;;;8.40;99.90;;;;;;25585767;23;20253;-81
2022/01/17 22:43:06;;;;;;;0.53;0.53;;;8.40;99.90;;;;;;25591500;23;20688;-67
2022/01/17 22:53:10;;;;;;;0.20;0.10;;;8.00;99.90;;;;;;25592153;23;20177;-66
2022/01/17 23:03:16;;;;;;;0.20;0.10;;;7.60;99.90;;;;;;25591886;23;20212;-67
2022/01/17 23:13:19;;;;;;;0.20;0.00;;;7.60;99.90;;;;;;25591758;23;20173;-66
2022/01/17 23:23:27;;;;;;;0.20;0.03;;;7.70;99.90;;;;;;25589889;23;20245;-66
2022/01/17 23:43:55;;;;;;;0.20;0.10;;;7.70;99.90;;;;;;25590905;23;20224;-66
2022/01/17 23:53:59;;;;;;;0.20;0.00;;;8.00;99.90;;;;;;25591258;23;20217;-67
